Time;durP1;ratioP1;P1;durP2;ratioP2;P2;SDS_P1;SDS_P2;PMS_P1;PMS_P2;Temp;Humidity;BMP_temperature;BMP_pressure;BME280_temperature;BME280_humidity;BME280_pressure;Samples;Min_cycle;Max_cycle;Signal;HPM_P1;HPM_P2
2021/04/02 00:01:30;;;;;;;;;;;;;;;17.94;60.19;99219.50;4344338;33;32275;-87
2021/04/02 00:03:55;;;;;;;;;;;;;;;17.90;60.18;99222.47;4357048;32;20015;-86
2021/04/02 00:06:20;;;;;;;;;;;;;;;17.83;60.17;99206.25;4346223;33;20023;-86
2021/04/02 00:08:45;;;;;;;;;;;;;;;17.74;60.17;99210.41;4345350;33;27520;-86
2021/04/02 00:11:11;;;;;;;;;;;;;;;17.75;60.17;99206.81;4344446;33;20003;-86
2021/04/02 00:13:37;;;;;;;;;;;;;;;17.71;60.17;99201.84;4357198;32;20011;-86
2021/04/02 00:16:03;;;;;;;;;;;;;;;17.62;60.17;99207.72;4357203;32;19999;-86
2021/04/02 00:18:28;;;;;;;;;;;;;;;17.63;60.17;99212.03;4346177;33;19979;-86
2021/04/02 00:20:53;;;;;;;;;;;;;;;17.54;60.16;99207.44;4345631;33;21445;-87
2021/04/02 00:23:19;;;;;;;;;;;;;;;17.30;60.16;99209.94;4345184;33;19988;-87
2021/04/02 00:25:44;;;;;;;;;;;;;;;17.23;60.15;99203.41;4359597;32;20011;-86
2021/04/02 00:28:10;;;;;;;;;;;;;;;17.19;60.14;99202.78;4346806;33;19995;-86
2021/04/02 00:30:45;;;;;;;;;;;;;;;17.22;60.15;99199.94;4359167;32;19991;-86
2021/04/02 00:33:10;;;;;;;;;;;;;;;17.18;60.14;99203.72;4346910;33;20320;-86
2021/04/02 00:35:36;;;;;;;;;;;;;;;17.13;60.14;99200.56;4359190;32;20019;-86
2021/04/02 00:38:01;;;;;;;;;;;;;;;17.09;60.14;99199.09;4347996;33;20007;-86
2021/04/02 00:40:28;;;;;;;;;;;;;;;17.01;60.14;99206.63;4359030;32;19976;-88
2021/04/02 00:42:53;;;;;;;;;;;;;;;17.05;60.14;99200.25;4346790;33;19983;-86
2021/04/02 00:45:19;;;;;;;;;;;;;;;16.91;60.13;99202.94;4358819;32;20148;-86
2021/04/02 00:47:45;;;;;;;;;;;;;;;16.97;60.14;99200.75;4359220;32;20004;-86
2021/04/02 00:50:11;;;;;;;;;;;;;;;16.83;60.12;99203.47;4359103;32;19987;-86
2021/04/02 00:52:37;;;;;;;;;;;;;;;16.79;60.13;99201.97;4348029;33;19971;-86
2021/04/02 00:55:02;;;;;;;;;;;;;;;16.71;60.12;99209.53;4347953;33;19999;-86
2021/04/02 00:57:27;;;;;;;;;;;;;;;16.53;60.12;99206.28;4346657;33;19992;-87
2021/04/02 00:59:52;;;;;;;;;;;;;;;16.60;60.11;99212.84;4358435;32;23327;-86
2021/04/02 01:02:18;;;;;;;;;;;;;;;16.67;60.11;99211.50;4358485;32;27405;-88
2021/04/02 01:04:43;;;;;;;;;;;;;;;16.64;60.12;99214.31;4358602;32;20099;-87
2021/04/02 01:07:08;;;;;;;;;;;;;;;16.47;60.11;99217.19;4358867;32;20003;-88
2021/04/02 01:09:33;;;;;;;;;;;;;;;16.37;60.09;99216.94;4345913;33;20300;-87
2021/04/02 01:11:59;;;;;;;;;;;;;;;16.46;60.11;99215.50;4358844;32;20041;-87
2021/04/02 01:14:24;;;;;;;;;;;;;;;16.33;60.10;99209.37;4358892;32;20015;-87
2021/04/02 01:16:49;;;;;;;;;;;;;;;16.56;60.11;99203.44;4346123;33;20050;-87
2021/04/02 01:19:17;;;;;;;;;;;;;;;16.46;60.11;99202.38;4346470;33;19998;-88
2021/04/02 01:21:53;;;;;;;;;;;;;;;16.59;60.11;99198.00;4347849;33;19980;-89
2021/04/02 01:24:21;;;;;;;;;;;;;;;16.51;60.10;99195.88;4358904;32;19999;-86
2021/04/02 01:26:49;;;;;;;;;;;;;;;16.73;60.11;99200.59;4346263;33;20000;-87
2021/04/02 01:29:16;;;;;;;;;;;;;;;16.78;60.13;99189.75;4346460;33;20782;-87
2021/04/02 01:31:42;;;;;;;;;;;;;;;16.89;60.12;99195.16;4346453;33;20002;-86
2021/04/02 01:34:07;;;;;;;;;;;;;;;17.05;60.13;99192.37;4346756;33;20058;-86
2021/04/02 01:36:33;;;;;;;;;;;;;;;17.19;60.14;99189.62;4357945;32;19999;-87
2021/04/02 01:38:58;;;;;;;;;;;;;;;17.11;60.13;99195.41;4346245;33;19998;-87
2021/04/02 01:41:23;;;;;;;;;;;;;;;16.97;60.13;99195.50;4347122;33;22457;-87
2021/04/02 01:43:51;;;;;;;;;;;;;;;17.04;60.14;99191.53;4346387;33;20027;-87
2021/04/02 01:46:17;;;;;;;;;;;;;;;17.12;60.13;99196.25;4346250;33;20057;-87
2021/04/02 01:48:45;;;;;;;;;;;;;;;17.08;60.14;99195.63;4358035;32;28114;-87
2021/04/02 01:51:10;;;;;;;;;;;;;;;17.17;60.14;99208.13;4347468;33;19990;-88
2021/04/02 01:53:37;;;;;;;;;;;;;;;17.09;60.14;99210.47;4346088;33;20006;-86
2021/04/02 01:56:03;;;;;;;;;;;;;;;17.12;60.14;99209.41;4358667;32;19999;-85
2021/04/02 01:58:28;;;;;;;;;;;;;;;17.22;60.14;99204.34;4358685;32;20039;-87
2021/04/02 02:00:57;;;;;;;;;;;;;;;17.21;60.14;99208.78;4358589;32;20282;-86
2021/04/02 02:03:22;;;;;;;;;;;;;;;17.13;60.14;99214.56;4358461;32;20590;-87
2021/04/02 02:05:48;;;;;;;;;;;;;;;17.12;60.13;99217.28;4358558;32;20330;-87
2021/04/02 02:08:13;;;;;;;;;;;;;;;17.21;60.14;99215.81;4358633;32;20068;-88
2021/04/02 02:10:39;;;;;;;;;;;;;;;17.08;60.14;99223.72;4358281;32;19997;-87
2021/04/02 02:13:04;;;;;;;;;;;;;;;17.06;60.13;99231.69;4357949;32;31221;-88
2021/04/02 02:15:29;;;;;;;;;;;;;;;16.98;60.13;99230.50;4345692;33;26752;-88
2021/04/02 02:18:05;;;;;;;;;;;;;;;17.03;60.13;99231.03;4345754;33;24534;-88
2021/04/02 02:20:30;;;;;;;;;;;;;;;16.99;60.12;99232.19;4345910;33;19979;-88
2021/04/02 02:22:56;;;;;;;;;;;;;;;16.83;60.12;99235.84;4345992;33;20292;-85
2021/04/02 02:25:21;;;;;;;;;;;;;;;16.85;60.13;99233.13;4358474;32;20003;-86
2021/04/02 02:27:46;;;;;;;;;;;;;;;16.90;60.13;99224.94;4347313;33;20004;-86
2021/04/02 02:30:16;;;;;;;;;;;;;;;16.86;60.12;99226.91;4345347;33;32552;-85
2021/04/02 02:32:41;;;;;;;;;;;;;;;16.95;60.13;99234.19;4345913;33;20018;-85
2021/04/02 02:35:07;;;;;;;;;;;;;;;16.95;60.13;99230.72;4347076;33;20341;-85
2021/04/02 02:37:33;;;;;;;;;;;;;;;16.86;60.12;99226.91;4358312;32;19999;-85
2021/04/02 02:39:58;;;;;;;;;;;;;;;16.87;60.12;99221.56;4358455;32;20317;-86
2021/04/02 02:42:23;;;;;;;;;;;;;;;17.00;60.12;99202.31;4357744;32;26050;-88
2021/04/02 02:44:48;;;;;;;;;;;;;;;17.00;60.13;99213.69;4358262;32;20043;-88
2021/04/02 02:47:13;;;;;;;;;;;;;;;17.19;60.14;99221.19;4345558;33;20023;-89
2021/04/02 02:49:39;;;;;;;;;;;;;;;17.12;60.13;99207.63;4345378;33;26754;-88
2021/04/02 02:52:04;;;;;;;;;;;;;;;17.06;60.13;99222.97;4345097;33;27730;-88
2021/04/02 02:54:29;;;;;;;;;;;;;;;17.15;60.15;99211.81;4345812;33;20388;-88
2021/04/02 02:56:55;;;;;;;;;;;;;;;16.98;60.13;99214.72;4358335;32;20006;-89
2021/04/02 02:59:21;;;;;;;;;;;;;;;16.90;60.12;99212.62;4346017;33;20053;-88
2021/04/02 03:01:46;;;;;;;;;;;;;;;17.06;60.13;99222.97;4358175;32;19987;-88
2021/04/02 03:04:11;;;;;;;;;;;;;;;16.83;60.12;99222.72;4358365;32;20000;-88
2021/04/02 03:06:37;;;;;;;;;;;;;;;16.86;60.13;99225.13;4345435;33;20026;-87
2021/04/02 03:09:02;;;;;;;;;;;;;;;16.66;60.12;99230.84;4345572;33;20482;-87
2021/04/02 03:11:28;;;;;;;;;;;;;;;16.54;60.11;99245.56;4357753;32;20060;-88
2021/04/02 03:13:53;;;;;;;;;;;;;;;16.56;60.11;99254.22;4358020;32;20423;-86
2021/04/02 03:16:18;;;;;;;;;;;;;;;16.61;60.10;99251.31;4345619;33;20007;-89
2021/04/02 03:18:44;;;;;;;;;;;;;;;16.57;60.11;99247.19;4345367;33;20042;-87
2021/04/02 03:21:09;;;;;;;;;;;;;;;16.57;60.11;99249.81;4357844;32;20046;-88
2021/04/02 03:23:35;;;;;;;;;;;;;;;16.57;60.11;99255.06;4345092;33;19995;-91
2021/04/02 03:26:00;;;;;;;;;;;;;;;16.43;60.10;99252.47;4346989;33;19998;-91
2021/04/02 03:28:26;;;;;;;;;;;;;;;16.56;60.11;99248.09;4345127;33;27800;-89
2021/04/02 03:30:51;;;;;;;;;;;;;;;16.66;60.11;99251.88;4357119;32;25358;-88
2021/04/02 03:33:23;;;;;;;;;;;;;;;16.67;60.11;99256.19;4357267;32;21463;-89
2021/04/02 03:35:48;;;;;;;;;;;;;;;16.40;60.10;99248.25;4345337;33;19983;-89
2021/04/02 03:38:14;;;;;;;;;;;;;;;16.55;60.11;99249.03;4357505;32;19971;-88
2021/04/02 03:40:39;;;;;;;;;;;;;;;16.57;60.11;99252.44;4357906;32;20364;-89
2021/04/02 03:43:05;;;;;;;;;;;;;;;16.58;60.11;99259.38;4345397;33;20004;-89
2021/04/02 03:45:30;;;;;;;;;;;;;;;16.58;60.11;99256.75;4346633;33;20048;-89
2021/04/02 03:47:55;;;;;;;;;;;;;;;16.58;60.11;99257.59;4357314;32;19987;-89
2021/04/02 03:50:21;;;;;;;;;;;;;;;16.51;60.10;99256.28;4344524;33;32541;-89
2021/04/02 03:53:06;;;;;;;;;;;;;;;16.46;60.11;99266.25;4357464;32;20050;-89
2021/04/02 03:55:31;;;;;;;;;;;;;;;16.63;60.11;99265.19;4346400;32;19990;-88
2021/04/02 03:57:57;;;;;;;;;;;;;;;16.41;60.10;99262.25;4357871;32;20039;-89
2021/04/02 04:00:30;;;;;;;;;;;;;;;16.44;60.10;99262.88;4359738;32;19987;-87
2021/04/02 04:02:55;;;;;;;;;;;;;;;16.45;60.10;99259.31;4359515;32;20034;-87
2021/04/02 04:05:20;;;;;;;;;;;;;;;16.55;60.11;99256.94;4346604;33;29132;-89
2021/04/02 04:07:46;;;;;;;;;;;;;;;16.48;60.10;99259.13;4359208;32;26486;-88
2021/04/02 04:10:14;;;;;;;;;;;;;;;16.40;60.10;99257.94;4359285;32;20257;-89
2021/04/02 04:12:40;;;;;;;;;;;;;;;16.44;60.09;99257.62;4359401;32;20008;-89
2021/04/02 04:15:06;;;;;;;;;;;;;;;16.52;60.10;99254.50;4359378;32;20019;-87
2021/04/02 04:17:31;;;;;;;;;;;;;;;16.67;60.11;99271.13;4359180;32;20010;-88
2021/04/02 04:19:56;;;;;;;;;;;;;;;16.62;60.11;99258.25;4358760;32;25653;-88
2021/04/02 04:22:22;;;;;;;;;;;;;;;16.67;60.11;99268.47;4358582;32;28939;-88
2021/04/02 04:24:48;;;;;;;;;;;;;;;16.69;60.12;99262.19;4346876;33;20314;-88
2021/04/02 04:27:13;;;;;;;;;;;;;;;16.86;60.12;99264.56;4348272;33;19983;-87
2021/04/02 04:29:44;;;;;;;;;;;;;;;16.75;60.11;99258.31;4359337;32;19988;-88
2021/04/02 04:32:10;;;;;;;;;;;;;;;16.71;60.12;99255.03;4346764;33;19999;-86
2021/04/02 04:34:35;;;;;;;;;;;;;;;16.93;60.13;99267.63;4346919;33;20042;-87
2021/04/02 04:37:00;;;;;;;;;;;;;;;16.93;60.12;99258.91;4358680;32;25008;-87
2021/04/02 04:39:26;;;;;;;;;;;;;;;16.91;60.12;99268.66;4358531;32;32404;-87
2021/04/02 04:41:52;;;;;;;;;;;;;;;16.90;60.12;99264.34;4346718;33;20050;-86
2021/04/02 04:44:17;;;;;;;;;;;;;;;16.77;60.12;99252.00;4346719;33;19980;-86
2021/04/02 04:46:42;;;;;;;;;;;;;;;16.86;60.12;99267.19;4358336;32;27876;-87
2021/04/02 04:49:07;;;;;;;;;;;;;;;16.94;60.13;99271.94;4358527;32;26584;-88
2021/04/02 04:51:33;;;;;;;;;;;;;;;16.87;60.12;99268.87;4358326;32;28516;-88
2021/04/02 04:53:58;;;;;;;;;;;;;;;16.80;60.12;99272.84;4358978;32;20348;-87
2021/04/02 04:56:26;;;;;;;;;;;;;;;16.88;60.12;99281.06;4359000;32;19976;-88
2021/04/02 04:58:51;;;;;;;;;;;;;;;16.77;60.12;99273.03;4346642;33;20003;-87
2021/04/02 05:01:17;;;;;;;;;;;;;;;16.97;60.13;99278.78;4359035;32;20010;-88
2021/04/02 05:03:42;;;;;;;;;;;;;;;16.80;60.12;99287.78;4346433;33;19996;-87
2021/04/02 05:06:07;;;;;;;;;;;;;;;16.91;60.13;99276.56;4359013;32;19999;-87
2021/04/02 05:08:34;;;;;;;;;;;;;;;16.77;60.13;99280.91;4346471;33;20269;-87
2021/04/02 05:10:59;;;;;;;;;;;;;;;16.90;60.13;99282.75;4357736;32;20388;-87
2021/04/02 05:13:24;;;;;;;;;;;;;;;16.90;60.12;99282.75;4345847;33;29287;-88
2021/04/02 05:15:50;;;;;;;;;;;;;;;16.70;60.12;99292.78;4359011;32;20066;-89
2021/04/02 05:18:15;;;;;;;;;;;;;;;16.82;60.12;99291.16;4358906;32;20015;-88
2021/04/02 05:20:40;;;;;;;;;;;;;;;16.89;60.12;99284.56;4345789;33;31030;-88
2021/04/02 05:23:06;;;;;;;;;;;;;;;16.74;60.11;99289.00;4347922;33;20528;-88
2021/04/02 05:25:31;;;;;;;;;;;;;;;16.91;60.12;99293.19;4358895;32;19983;-88
2021/04/02 05:27:57;;;;;;;;;;;;;;;16.76;60.12;99287.13;4358449;32;27440;-87
2021/04/02 05:30:22;;;;;;;;;;;;;;;16.76;60.12;99287.13;4346397;33;20059;-87
2021/04/02 05:32:48;;;;;;;;;;;;;;;16.97;60.13;99294.56;4346501;33;20015;-90
2021/04/02 05:35:13;;;;;;;;;;;;;;;16.94;60.13;99300.00;4346472;33;19979;-89
2021/04/02 05:37:38;;;;;;;;;;;;;;;16.99;60.12;99300.56;4347506;33;20034;-88
2021/04/02 05:40:03;;;;;;;;;;;;;;;16.85;60.13;99307.56;4347569;33;20027;-88
2021/04/02 05:42:29;;;;;;;;;;;;;;;16.66;60.11;99314.94;4358425;32;20080;-88
2021/04/02 05:44:54;;;;;;;;;;;;;;;16.91;60.13;99310.72;4346295;33;20043;-89
2021/04/02 05:47:19;;;;;;;;;;;;;;;16.98;60.13;99318.13;4358884;32;20070;-90
2021/04/02 05:49:45;;;;;;;;;;;;;;;17.01;60.14;99317.91;4346451;33;20352;-89
2021/04/02 05:52:10;;;;;;;;;;;;;;;16.97;60.13;99320.84;4358822;32;20002;-89
2021/04/02 05:54:36;;;;;;;;;;;;;;;17.02;60.13;99316.13;4358583;32;20047;-88
2021/04/02 05:57:01;;;;;;;;;;;;;;;16.97;60.13;99311.16;4358687;32;20054;-87
2021/04/02 05:59:26;;;;;;;;;;;;;;;17.01;60.13;99317.91;4347733;33;20019;-88
2021/04/02 06:01:52;;;;;;;;;;;;;;;16.95;60.12;99318.31;4358415;32;20282;-87
2021/04/02 06:04:17;;;;;;;;;;;;;;;16.91;60.12;99321.25;4358725;32;19987;-87
2021/04/02 06:06:42;;;;;;;;;;;;;;;16.95;60.12;99313.06;4358700;32;19999;-87
2021/04/02 06:09:07;;;;;;;;;;;;;;;17.18;60.14;99311.56;4346273;33;19999;-87
2021/04/02 06:11:33;;;;;;;;;;;;;;;17.14;60.13;99312.72;4345383;33;26071;-88
2021/04/02 06:13:58;;;;;;;;;;;;;;;17.32;60.14;99310.66;4358631;32;19998;-87
2021/04/02 06:16:23;;;;;;;;;;;;;;;17.48;60.16;99312.12;4358541;32;20357;-88
2021/04/02 06:18:49;;;;;;;;;;;;;;;17.53;60.15;99303.12;4347220;33;19995;-87
2021/04/02 06:21:14;;;;;;;;;;;;;;;17.54;60.16;99312.69;4346973;33;19980;-87
2021/04/02 06:23:39;;;;;;;;;;;;;;;17.64;60.16;99321.63;4358462;32;20632;-88
2021/04/02 06:26:06;;;;;;;;;;;;;;;17.62;60.17;99326.16;4358151;32;20529;-87
2021/04/02 06:28:32;;;;;;;;;;;;;;;17.70;60.16;99329.97;4358526;32;20042;-87
2021/04/02 06:30:57;;;;;;;;;;;;;;;17.60;60.15;99328.91;4358434;32;19976;-87
2021/04/02 06:33:28;;;;;;;;;;;;;;;17.73;60.17;99337.66;4347386;33;19979;-87
2021/04/02 06:35:53;;;;;;;;;;;;;;;17.76;60.16;99336.66;4358346;32;19992;-86
2021/04/02 06:38:19;;;;;;;;;;;;;;;17.92;60.18;99321.47;4345473;33;26958;-88
2021/04/02 06:40:44;;;;;;;;;;;;;;;17.97;60.18;99321.97;4346701;33;24293;-86
2021/04/02 06:43:09;;;;;;;;;;;;;;;18.07;60.19;99330.94;4345229;33;32880;-88
2021/04/02 06:45:35;;;;;;;;;;;;;;;18.16;60.19;99324.19;4347226;33;20010;-87
2021/04/02 06:48:08;;;;;;;;;;;;;;;18.07;60.19;99325.69;4358324;32;19995;-88
2021/04/02 06:50:33;;;;;;;;;;;;;;;17.97;60.18;99324.63;4358367;32;20010;-88
2021/04/02 06:52:58;;;;;;;;;;;;;;;17.95;60.18;99331.78;4358262;32;19996;-88
2021/04/02 06:55:24;;;;;;;;;;;;;;;17.98;60.18;99336.00;4358274;32;19991;-86
2021/04/02 06:57:50;;;;;;;;;;;;;;;17.93;60.18;99333.69;4345907;33;20011;-87
2021/04/02 07:00:16;;;;;;;;;;;;;;;17.81;60.17;99333.69;4358171;32;19975;-88
2021/04/02 07:02:41;;;;;;;;;;;;;;;17.91;60.17;99332.09;4358008;32;20258;-88
2021/04/02 07:05:07;;;;;;;;;;;;;;;17.62;60.17;99332.28;4357461;32;29249;-87
2021/04/02 07:07:32;;;;;;;;;;;;;;;17.77;60.17;99330.44;4358102;32;20011;-87
2021/04/02 07:09:57;;;;;;;;;;;;;;;17.69;60.17;99340.63;4357888;32;20046;-86
2021/04/02 07:12:23;;;;;;;;;;;;;;;17.93;60.18;99332.84;4346251;33;30083;-88
2021/04/02 07:14:48;;;;;;;;;;;;;;;18.15;60.18;99335.66;4357353;32;25650;-87
2021/04/02 07:17:13;;;;;;;;;;;;;;;18.21;60.19;99337.03;4357986;32;20050;-87
2021/04/02 07:19:39;;;;;;;;;;;;;;;18.50;60.21;99332.38;4357537;32;27194;-89
2021/04/02 07:22:04;;;;;;;;;;;;;;;18.54;60.22;99342.56;4345443;33;20015;-88
2021/04/02 07:24:29;;;;;;;;;;;;;;;18.52;60.21;99335.72;4357821;32;20002;-87
2021/04/02 07:26:54;;;;;;;;;;;;;;;18.79;60.22;99332.94;4344642;33;31136;-89
2021/04/02 07:29:20;;;;;;;;;;;;;;;18.46;60.21;99350.19;4344771;33;28638;-87
2021/04/02 07:31:45;;;;;;;;;;;;;;;18.29;60.19;99351.38;4345426;33;20373;-88
2021/04/02 07:34:11;;;;;;;;;;;;;;;18.60;60.21;99352.69;4346315;33;20007;-88
2021/04/02 07:36:36;;;;;;;;;;;;;;;18.93;60.23;99357.38;4346779;33;20022;-87
2021/04/02 07:39:03;;;;;;;;;;;;;;;18.82;60.22;99367.84;4358875;32;21479;-87
2021/04/02 07:41:28;;;;;;;;;;;;;;;18.81;60.23;99367.94;4346717;33;20099;-87
2021/04/02 07:43:55;;;;;;;;;;;;;;;18.72;60.22;99361.56;4346221;33;30119;-87
2021/04/02 07:46:24;;;;;;;;;;;;;;;18.42;60.20;99377.69;4346928;33;20003;-87
2021/04/02 07:48:49;;;;;;;;;;;;;;;18.46;60.21;99373.06;4346924;32;20022;-87
2021/04/02 07:51:14;;;;;;;;;;;;;;;18.77;60.23;99367.31;4345817;33;20006;-87
2021/04/02 07:53:41;;;;;;;;;;;;;;;18.70;60.22;99369.56;4346046;33;20452;-87
2021/04/02 07:56:10;;;;;;;;;;;;;;;18.71;60.22;99367.78;4347781;33;20759;-88
2021/04/02 07:58:52;;;;;;;;;;;;;;;18.70;60.22;99366.94;4358476;32;19980;-86
2021/04/02 08:01:22;;;;;;;;;;;;;;;18.45;60.20;99384.53;4358707;32;20001;-88
2021/04/02 08:03:47;;;;;;;;;;;;;;;18.77;60.23;99372.59;4346690;33;20516;-87
2021/04/02 08:06:45;;;;;;;;;;;;;;;19.03;60.24;99373.34;4358627;32;19996;-86
2021/04/02 08:09:10;;;;;;;;;;;;;;;19.00;60.24;99373.59;4330230;33;20022;-87
2021/04/02 08:11:45;;;;;;;;;;;;;;;19.22;60.25;99378.97;4358219;32;30867;-88
2021/04/02 08:14:14;;;;;;;;;;;;;;;19.38;60.26;99378.66;4346945;33;20049;-87
2021/04/02 08:16:43;;;;;;;;;;;;;;;19.34;60.25;99387.78;4346969;33;19995;-88
2021/04/02 08:19:10;;;;;;;;;;;;;;;19.39;60.26;99388.25;4346318;33;20036;-88
2021/04/02 08:21:36;;;;;;;;;;;;;;;19.36;60.25;99398.22;4346728;33;20075;-88
2021/04/02 08:24:05;;;;;;;;;;;;;;;19.37;60.25;99397.25;4358942;32;20051;-88
2021/04/02 08:26:31;;;;;;;;;;;;;;;19.51;60.26;99392.66;4346687;33;20808;-87
2021/04/02 08:28:56;;;;;;;;;;;;;;;19.71;60.27;99385.06;4359080;32;19976;-88
2021/04/02 08:31:21;;;;;;;;;;;;;;;19.64;60.27;99382.06;4359167;32;20043;-88
2021/04/02 08:33:47;;;;;;;;;;;;;;;19.56;60.26;99376.50;4345564;33;25861;-86
2021/04/02 08:36:12;;;;;;;;;;;;;;;19.50;60.26;99382.22;4358562;32;28876;-87
2021/04/02 08:38:45;;;;;;;;;;;;;;;19.71;60.27;99391.19;4346169;33;28337;-87
2021/04/02 08:41:30;;;;;;;;;;;;;;;19.74;60.27;99379.56;4359220;32;20341;-86
2021/04/02 08:43:55;;;;;;;;;;;;;;;19.62;60.27;99384.78;4358928;32;20467;-86
2021/04/02 08:46:34;;;;;;;;;;;;;;;19.65;60.27;99385.53;4359151;32;20124;-86
2021/04/02 08:48:59;;;;;;;;;;;;;;;19.54;60.27;99378.41;4346650;32;20461;-86
2021/04/02 08:51:24;;;;;;;;;;;;;;;19.61;60.26;99379.62;4347569;33;19991;-87
2021/04/02 08:53:50;;;;;;;;;;;;;;;19.81;60.28;99378.97;4347413;33;24987;-86
2021/04/02 08:56:16;;;;;;;;;;;;;;;19.72;60.28;99376.19;4346739;33;20270;-88
2021/04/02 08:58:41;;;;;;;;;;;;;;;19.82;60.28;99379.81;4359010;32;20019;-86
2021/04/02 09:01:06;;;;;;;;;;;;;;;19.63;60.27;99380.34;4358959;32;19999;-86
2021/04/02 09:03:31;;;;;;;;;;;;;;;20.11;60.29;99385.50;4345973;33;26023;-86
2021/04/02 09:05:57;;;;;;;;;;;;;;;20.12;60.29;99382.78;4358851;32;20036;-87
2021/04/02 09:08:22;;;;;;;;;;;;;;;20.18;60.30;99377.00;4347308;33;28823;-87
2021/04/02 09:10:47;;;;;;;;;;;;;;;20.31;60.30;99381.31;4346145;33;19983;-87
2021/04/02 09:13:13;;;;;;;;;;;;;;;20.08;60.29;99381.28;4346462;32;20285;-87
2021/04/02 09:15:38;;;;;;;;;;;;;;;20.15;60.29;99371.13;4359142;32;19991;-88
2021/04/02 09:18:13;;;;;;;;;;;;;;;20.24;60.31;99388.88;4358952;32;20018;-88
2021/04/02 09:20:38;;;;;;;;;;;;;;;20.33;60.30;99380.22;4359141;32;19998;-90
2021/04/02 09:23:04;;;;;;;;;;;;;;;20.50;60.31;99378.94;4346778;32;20011;-87
2021/04/02 09:25:29;;;;;;;;;;;;;;;20.84;60.33;99383.25;4358042;32;29216;-87
2021/04/02 09:28:03;;;;;;;;;;;;;;;20.76;60.33;99374.25;4347231;33;23365;-86
2021/04/02 09:30:28;;;;;;;;;;;;;;;20.97;60.34;99371.69;4358815;32;20055;-88
2021/04/02 09:32:54;;;;;;;;;;;;;;;21.12;60.35;99373.94;4346380;33;20282;-90
2021/04/02 09:35:20;;;;;;;;;;;;;;;21.22;60.35;99383.75;4358626;32;28163;-91
2021/04/02 09:37:45;;;;;;;;;;;;;;;21.34;60.35;99390.75;4346386;33;19983;-90
2021/04/02 09:40:11;;;;;;;;;;;;;;;21.00;60.35;99380.19;4358045;32;20382;-88
2021/04/02 09:42:36;;;;;;;;;;;;;;;20.74;60.33;99387.59;4346626;33;19995;-91
2021/04/02 09:45:05;;;;;;;;;;;;;;;20.93;60.33;99394.91;4346801;32;20018;-89
2021/04/02 09:47:38;;;;;;;;;;;;;;;20.75;60.33;99376.03;4359471;32;20042;-91
2021/04/02 09:50:03;;;;;;;;;;;;;;;20.51;60.31;99389.41;4359044;32;19987;-89
2021/04/02 09:52:29;;;;;;;;;;;;;;;20.58;60.32;99388.91;4346608;33;20007;-91
2021/04/02 09:54:54;;;;;;;;;;;;;;;20.60;60.32;99376.44;4346546;33;20119;-90
2021/04/02 09:57:19;;;;;;;;;;;;;;;20.66;60.33;99379.44;4346082;33;19991;-90
2021/04/02 09:59:44;;;;;;;;;;;;;;;20.51;60.31;99373.53;4359010;32;20051;-90
2021/04/02 10:02:10;;;;;;;;;;;;;;;20.43;60.31;99361.91;4346200;33;20046;-91
2021/04/02 10:04:35;;;;;;;;;;;;;;;20.59;60.32;99369.47;4346984;33;20341;-89
2021/04/02 10:07:01;;;;;;;;;;;;;;;20.60;60.32;99368.50;4358324;32;21153;-89
2021/04/02 10:09:28;;;;;;;;;;;;;;;20.89;60.34;99366.16;4358479;32;20003;-89
2021/04/02 10:11:54;;;;;;;;;;;;;;;20.92;60.33;99373.84;4358269;32;20034;-90
2021/04/02 10:14:19;;;;;;;;;;;;;;;20.62;60.33;99378.00;4345331;33;30301;-89
2021/04/02 10:16:45;;;;;;;;;;;;;;;20.37;60.31;99376.41;4358291;32;20055;-90
2021/04/02 10:19:11;;;;;;;;;;;;;;;20.32;60.31;99375.91;4346051;33;19988;-91
2021/04/02 10:21:36;;;;;;;;;;;;;;;20.23;60.31;99376.63;4346144;33;20513;-89
2021/04/02 10:24:01;;;;;;;;;;;;;;;20.05;60.29;99370.97;4347407;33;20120;-87
2021/04/02 10:26:27;;;;;;;;;;;;;;;19.96;60.29;99378.78;4358612;32;20277;-86
2021/04/02 10:28:52;;;;;;;;;;;;;;;20.01;60.30;99366.88;4346445;33;25475;-87
2021/04/02 10:31:17;;;;;;;;;;;;;;;19.99;60.29;99360.87;4347433;33;20015;-88
2021/04/02 10:33:42;;;;;;;;;;;;;;;20.01;60.29;99368.69;4345533;33;24874;-87
2021/04/02 10:36:08;;;;;;;;;;;;;;;20.12;60.29;99364.28;4347353;33;19976;-87
2021/04/02 10:38:33;;;;;;;;;;;;;;;20.15;60.30;99361.37;4358498;32;20038;-87
2021/04/02 10:40:58;;;;;;;;;;;;;;;20.09;60.30;99356.56;4345564;33;20262;-88
2021/04/02 10:43:23;;;;;;;;;;;;;;;20.17;60.31;99346.25;4345893;33;20003;-90
2021/04/02 10:45:49;;;;;;;;;;;;;;;20.38;60.30;99366.69;4346262;33;19983;-90
2021/04/02 10:48:14;;;;;;;;;;;;;;;20.04;60.29;99355.22;4346415;33;20002;-91
2021/04/02 10:50:40;;;;;;;;;;;;;;;20.22;60.30;99335.31;4346582;33;20031;-89
2021/04/02 10:53:05;;;;;;;;;;;;;;;19.80;60.28;99356.16;4344633;33;20010;-89
2021/04/02 10:55:31;;;;;;;;;;;;;;;19.80;60.28;99353.50;4356509;32;29957;-90
2021/04/02 10:57:56;;;;;;;;;;;;;;;19.89;60.28;99359.91;4344867;33;19985;-88
2021/04/02 11:00:21;;;;;;;;;;;;;;;19.73;60.28;99356.75;4344315;33;33166;-90
2021/04/02 11:02:47;;;;;;;;;;;;;;;19.67;60.28;99350.16;4344873;33;20015;-87
2021/04/02 11:05:12;;;;;;;;;;;;;;;20.07;60.29;99339.97;4357617;32;20010;-88
2021/04/02 11:07:37;;;;;;;;;;;;;;;20.06;60.29;99348.88;4344914;33;19995;-89
2021/04/02 11:10:09;;;;;;;;;;;;;;;19.80;60.27;99332.38;4357269;32;19983;-86
2021/04/02 11:12:35;;;;;;;;;;;;;;;19.71;60.28;99342.81;4357230;32;20063;-86
2021/04/02 11:15:00;;;;;;;;;;;;;;;19.53;60.27;99345.00;4357320;32;20014;-87
2021/04/02 11:17:25;;;;;;;;;;;;;;;19.52;60.26;99338.91;4357101;32;20615;-88
2021/04/02 11:19:51;;;;;;;;;;;;;;;19.46;60.27;99331.44;4344785;33;20321;-86
2021/04/02 11:22:16;;;;;;;;;;;;;;;19.68;60.27;99321.94;4357272;32;20003;-87
2021/04/02 11:24:41;;;;;;;;;;;;;;;19.61;60.27;99322.37;4346056;33;19971;-87
2021/04/02 11:27:07;;;;;;;;;;;;;;;19.78;60.28;99307.91;4357077;32;20043;-84
2021/04/02 11:29:32;;;;;;;;;;;;;;;19.98;60.29;99309.00;4346148;33;19994;-86
2021/04/02 11:31:57;;;;;;;;;;;;;;;20.07;60.28;99310.06;4343988;33;24701;-85
2021/04/02 11:34:23;;;;;;;;;;;;;;;20.10;60.30;99315.97;4344465;33;20281;-86
2021/04/02 11:36:48;;;;;;;;;;;;;;;20.19;60.30;99299.41;4345987;33;19979;-86
2021/04/02 11:39:13;;;;;;;;;;;;;;;20.42;60.31;99308.19;4345112;33;29017;-86
2021/04/02 11:41:38;;;;;;;;;;;;;;;20.76;60.33;99300.19;4345931;33;20309;-86
2021/04/02 11:44:03;;;;;;;;;;;;;;;20.41;60.31;99306.50;4344943;33;34104;-86
2021/04/02 11:46:29;;;;;;;;;;;;;;;20.27;60.30;99313.81;4346465;33;20031;-87
2021/04/02 11:48:54;;;;;;;;;;;;;;;20.17;60.30;99303.12;4345134;33;20359;-87
2021/04/02 11:51:19;;;;;;;;;;;;;;;20.09;60.30;99300.22;4357555;32;20011;-87
2021/04/02 11:53:45;;;;;;;;;;;;;;;19.97;60.29;99302.03;4357360;32;19991;-87
2021/04/02 11:56:10;;;;;;;;;;;;;;;19.81;60.28;99302.38;4357607;32;20023;-88
2021/04/02 11:58:35;;;;;;;;;;;;;;;19.95;60.28;99303.97;4346360;33;20347;-87
2021/04/02 12:01:00;;;;;;;;;;;;;;;20.15;60.29;99305.06;4346394;33;20031;-88
2021/04/02 12:03:26;;;;;;;;;;;;;;;20.16;60.31;99296.16;4346391;33;19995;-88
2021/04/02 12:05:51;;;;;;;;;;;;;;;20.37;60.31;99299.75;4357544;32;19980;-87
2021/04/02 12:08:17;;;;;;;;;;;;;;;20.50;60.32;99297.81;4346282;33;20348;-87
2021/04/02 12:10:44;;;;;;;;;;;;;;;20.69;60.33;99297.19;4356657;32;20000;-87
2021/04/02 12:13:09;;;;;;;;;;;;;;;21.00;60.35;99287.59;4343980;33;20039;-89
2021/04/02 12:15:34;;;;;;;;;;;;;;;21.13;60.36;99298.00;4355850;32;30336;-89
2021/04/02 12:17:59;;;;;;;;;;;;;;;21.06;60.35;99273.88;4343877;33;20026;-89
2021/04/02 12:20:25;;;;;;;;;;;;;;;20.80;60.34;99291.84;4344754;33;22433;-87
2021/04/02 12:22:50;;;;;;;;;;;;;;;20.53;60.33;99294.09;4358569;32;20030;-87
2021/04/02 12:25:15;;;;;;;;;;;;;;;20.22;60.30;99301.78;4346047;33;20018;-88
2021/04/02 12:27:41;;;;;;;;;;;;;;;20.33;60.31;99298.28;4346046;33;20058;-87
2021/04/02 12:30:08;;;;;;;;;;;;;;;20.16;60.31;99306.72;4347485;33;20034;-87
2021/04/02 12:32:33;;;;;;;;;;;;;;;20.08;60.30;99294.09;4345872;33;19980;-87
2021/04/02 12:34:59;;;;;;;;;;;;;;;20.03;60.30;99298.06;4339426;33;25214;-87
2021/04/02 12:37:24;;;;;;;;;;;;;;;20.16;60.30;99297.00;4346116;33;20010;-87
2021/04/02 12:39:50;;;;;;;;;;;;;;;20.26;60.31;99288.34;4346220;33;28916;-88
2021/04/02 12:42:15;;;;;;;;;;;;;;;20.58;60.32;99302.50;4346753;33;20003;-89